Time;durP1;ratioP1;P1;durP2;ratioP2;P2;SDS_P1;SDS_P2;PMS_P1;PMS_P2;Temp;Humidity;BMP_temperature;BMP_pressure;BME280_temperature;BME280_humidity;BME280_pressure;Samples;Min_cycle;Max_cycle;Signal;HPM_P1;HPM_P2
2022/06/24 00:00:15;;;;;;;20.08;13.23;;;21.50;99.90;;;;;;4994893;28;20053;-65
2022/06/24 00:02:40;;;;;;;23.50;13.70;;;21.60;99.90;;;;;;4994555;28;20034;-65
2022/06/24 00:05:11;;;;;;;22.75;13.80;;;21.50;99.90;;;;;;4996262;28;20041;-65
2022/06/24 00:07:52;;;;;;;25.27;14.30;;;21.40;99.90;;;;;;5011896;28;20045;-70
2022/06/24 00:10:33;;;;;;;21.45;14.10;;;21.40;99.90;;;;;;5008621;28;20022;-71
2022/06/24 00:13:03;;;;;;;19.88;13.02;;;21.50;99.90;;;;;;5010347;28;20026;-69
2022/06/24 00:15:33;;;;;;;23.73;13.02;;;21.50;99.90;;;;;;4993059;28;20054;-71
2022/06/24 00:18:12;;;;;;;21.60;14.45;;;21.40;99.90;;;;;;5008680;28;20542;-69
2022/06/24 00:20:45;;;;;;;28.52;15.77;;;21.20;99.90;;;;;;5012512;28;20037;-69
2022/06/24 00:23:11;;;;;;;26.00;14.65;;;21.10;99.90;;;;;;5007622;28;20034;-69
2022/06/24 00:25:36;;;;;;;30.10;15.85;;;21.20;99.90;;;;;;5009320;28;20084;-70
2022/06/24 00:28:11;;;;;;;27.80;16.45;;;21.60;99.90;;;;;;4994220;28;20027;-71
2022/06/24 00:30:38;;;;;;;24.38;15.70;;;21.30;99.90;;;;;;5024509;28;20034;-71
2022/06/24 00:33:14;;;;;;;29.83;16.48;;;21.10;99.90;;;;;;5025676;28;20038;-71
2022/06/24 00:35:42;;;;;;;32.45;15.88;;;21.00;99.90;;;;;;4994973;28;20041;-68
2022/06/24 00:38:30;;;;;;;27.38;15.50;;;21.00;99.90;;;;;;4994190;28;20157;-69
2022/06/24 00:41:06;;;;;;;31.02;14.90;;;21.10;99.90;;;;;;4993925;28;20081;-70
2022/06/24 00:43:36;;;;;;;22.40;12.70;;;21.20;99.90;;;;;;5024236;28;20121;-71
2022/06/24 00:46:19;;;;;;;23.38;13.55;;;21.20;99.90;;;;;;4994534;28;20035;-70
2022/06/24 00:48:53;;;;;;;23.13;13.05;;;21.30;99.90;;;;;;4997777;28;20034;-70
2022/06/24 00:51:20;;;;;;;24.13;13.93;;;21.40;99.90;;;;;;5005303;28;20033;-72
2022/06/24 00:53:50;;;;;;;33.45;19.60;;;21.30;99.90;;;;;;4999536;28;20491;-68
2022/06/24 00:56:17;;;;;;;35.45;19.08;;;21.20;99.90;;;;;;5010478;28;20498;-70
2022/06/24 00:58:53;;;;;;;38.15;19.95;;;21.00;99.90;;;;;;4997944;28;20537;-71
2022/06/24 01:01:43;;;;;;;30.98;17.80;;;20.30;99.90;;;;;;5013125;28;20026;-70
2022/06/24 01:04:10;;;;;;;28.27;17.23;;;20.10;99.90;;;;;;5010371;28;20045;-69
2022/06/24 01:06:37;;;;;;;29.70;18.83;;;20.00;99.90;;;;;;4996906;28;20506;-69
2022/06/24 01:09:03;;;;;;;28.88;14.93;;;20.00;99.90;;;;;;5003763;28;20041;-69
2022/06/24 01:11:30;;;;;;;23.90;12.52;;;20.10;99.90;;;;;;5011650;28;20026;-69
2022/06/24 01:13:55;;;;;;;23.17;13.35;;;20.10;99.90;;;;;;5010263;28;20403;-69
2022/06/24 01:16:23;;;;;;;27.27;15.20;;;20.00;99.90;;;;;;5004460;28;20031;-68
2022/06/24 01:18:51;;;;;;;20.75;13.93;;;20.00;99.90;;;;;;5008263;28;20050;-68
2022/06/24 01:21:49;;;;;;;25.63;13.25;;;19.90;99.90;;;;;;5024696;28;20027;-68
2022/06/24 01:24:19;;;;;;;23.88;14.50;;;20.00;99.90;;;;;;5003322;28;20045;-68
2022/06/24 01:27:03;;;;;;;25.65;15.00;;;20.00;99.90;;;;;;5010731;28;20034;-68
2022/06/24 01:29:28;;;;;;;25.30;15.88;;;19.90;99.90;;;;;;5011439;28;20033;-68
2022/06/24 01:31:54;;;;;;;17.42;13.60;;;19.90;99.90;;;;;;5005254;28;20018;-68
2022/06/24 01:34:21;;;;;;;28.73;13.13;;;19.90;99.90;;;;;;5024784;28;20491;-69
2022/06/24 01:36:46;;;;;;;28.40;13.15;;;19.90;99.90;;;;;;5026743;28;20027;-68
2022/06/24 01:39:12;;;;;;;25.77;12.70;;;19.80;99.90;;;;;;5012576;28;20028;-68
2022/06/24 01:41:38;;;;;;;23.15;13.90;;;19.80;99.90;;;;;;5011805;28;20034;-68
2022/06/24 01:44:03;;;;;;;26.90;14.10;;;19.70;99.90;;;;;;5011120;28;20060;-68
2022/06/24 01:46:29;;;;;;;29.10;15.50;;;19.70;99.90;;;;;;4999940;28;20041;-68
2022/06/24 01:48:54;;;;;;;22.42;13.25;;;19.70;99.90;;;;;;4993102;28;20053;-68
2022/06/24 01:51:20;;;;;;;22.98;14.07;;;19.70;99.90;;;;;;4995341;28;20494;-68
2022/06/24 01:53:46;;;;;;;29.23;13.40;;;19.80;99.90;;;;;;5009682;28;20088;-68
2022/06/24 01:56:11;;;;;;;21.83;12.05;;;19.70;99.90;;;;;;5010199;28;20114;-68
2022/06/24 01:58:37;;;;;;;28.52;19.17;;;19.70;99.90;;;;;;4993162;28;20109;-68
2022/06/24 02:01:02;;;;;;;22.45;13.32;;;19.80;99.90;;;;;;5024265;28;20030;-68
2022/06/24 02:03:29;;;;;;;27.33;13.90;;;19.70;99.90;;;;;;4991919;28;20050;-68
2022/06/24 02:05:54;;;;;;;26.25;14.25;;;19.70;99.90;;;;;;5005488;28;20456;-68
2022/06/24 02:08:20;;;;;;;22.50;14.77;;;19.70;99.90;;;;;;4998767;28;20026;-68
2022/06/24 02:13:29;;;;;;;24.25;15.43;;;19.70;99.90;;;;;;5007043;28;20036;-68
2022/06/24 02:16:03;;;;;;;24.95;16.63;;;19.70;99.90;;;;;;5024147;28;20026;-68
2022/06/24 02:18:28;;;;;;;21.58;12.07;;;19.80;99.90;;;;;;5025731;28;20466;-68
2022/06/24 02:20:54;;;;;;;27.63;9.80;;;19.90;99.90;;;;;;5015886;28;20053;-68
2022/06/24 02:23:20;;;;;;;22.67;11.88;;;19.90;99.90;;;;;;5009954;28;20545;-68
2022/06/24 02:25:46;;;;;;;18.98;12.00;;;19.80;99.90;;;;;;5027859;28;20057;-68
2022/06/24 02:28:12;;;;;;;19.35;9.25;;;19.80;99.90;;;;;;4997695;28;20077;-68
2022/06/24 02:30:38;;;;;;;12.60;7.18;;;19.80;99.90;;;;;;4997917;28;20027;-69
2022/06/24 02:33:07;;;;;;;12.75;8.43;;;20.00;99.90;;;;;;5027684;28;20577;-69
2022/06/24 02:35:32;;;;;;;18.20;8.00;;;19.80;99.90;;;;;;4997475;28;20034;-69
2022/06/24 02:37:58;;;;;;;10.75;7.20;;;19.70;99.90;;;;;;5012384;28;20118;-69
2022/06/24 02:43:12;;;;;;;13.50;7.65;;;19.60;99.90;;;;;;5014625;28;20060;-69
2022/06/24 02:45:39;;;;;;;16.45;7.72;;;19.50;99.90;;;;;;5014298;28;20036;-69
2022/06/24 02:48:06;;;;;;;10.68;7.82;;;19.50;99.90;;;;;;5014262;28;20034;-70
2022/06/24 02:50:31;;;;;;;15.95;8.93;;;19.40;99.90;;;;;;5010128;28;20022;-69
2022/06/24 02:52:57;;;;;;;13.70;8.60;;;19.50;99.90;;;;;;5015609;28;20069;-69
2022/06/24 02:55:22;;;;;;;16.15;9.80;;;19.50;99.90;;;;;;4999065;28;20030;-77
2022/06/24 02:57:48;;;;;;;16.77;10.52;;;19.60;99.90;;;;;;4995918;28;20041;-76
2022/06/24 03:00:13;;;;;;;21.17;11.98;;;20.00;99.90;;;;;;5006879;28;20041;-75
2022/06/24 03:02:39;;;;;;;24.17;12.48;;;19.40;99.90;;;;;;5005976;28;20031;-75
2022/06/24 03:05:05;;;;;;;27.60;13.90;;;19.80;99.90;;;;;;5003961;28;20034;-74
2022/06/24 03:07:30;;;;;;;26.77;15.27;;;19.50;99.90;;;;;;5015522;28;20045;-74
2022/06/24 03:09:56;;;;;;;18.13;13.75;;;19.60;99.90;;;;;;5014983;28;20437;-74
2022/06/24 03:12:21;;;;;;;16.15;13.02;;;19.60;99.90;;;;;;5005996;28;20022;-75
2022/06/24 03:14:47;;;;;;;24.42;15.35;;;19.70;99.90;;;;;;5002890;28;20045;-76
2022/06/24 03:17:12;;;;;;;25.13;16.08;;;20.00;99.90;;;;;;5014939;28;20501;-75
2022/06/24 03:19:38;;;;;;;17.88;13.80;;;19.70;99.90;;;;;;5014965;28;20022;-75
2022/06/24 03:22:03;;;;;;;23.58;16.33;;;19.30;99.90;;;;;;5014978;28;20390;-75
2022/06/24 03:24:29;;;;;;;27.52;16.50;;;20.00;99.90;;;;;;5009019;28;20243;-75
2022/06/24 03:26:54;;;;;;;21.35;15.90;;;19.90;99.90;;;;;;5003626;28;20026;-75
2022/06/24 03:29:20;;;;;;;29.88;20.33;;;19.70;99.90;;;;;;5014265;28;20486;-77
2022/06/24 03:31:45;;;;;;;27.58;21.10;;;20.20;99.90;;;;;;5013928;28;20030;-77
2022/06/24 03:34:11;;;;;;;34.60;22.85;;;19.90;99.90;;;;;;5014056;28;20033;-74
2022/06/24 03:36:36;;;;;;;28.10;17.40;;;19.60;99.90;;;;;;5011642;28;20513;-74
2022/06/24 03:39:02;;;;;;;29.75;18.08;;;19.80;99.90;;;;;;5012687;28;20449;-75
2022/06/24 03:41:27;;;;;;;22.75;17.25;;;19.90;99.90;;;;;;5006324;28;20537;-76
2022/06/24 03:43:53;;;;;;;29.30;18.77;;;19.70;99.90;;;;;;5014394;28;20112;-76
2022/06/24 03:46:18;;;;;;;31.48;22.35;;;19.90;99.90;;;;;;5013221;28;20022;-73
2022/06/24 03:48:44;;;;;;;32.78;23.42;;;19.70;99.90;;;;;;5012657;28;20053;-73
2022/06/24 03:51:09;;;;;;;42.47;24.35;;;19.80;99.90;;;;;;5006760;28;20093;-74
2022/06/24 03:53:35;;;;;;;36.83;24.60;;;19.70;99.90;;;;;;5004936;28;20101;-73
2022/06/24 03:56:01;;;;;;;34.50;23.85;;;19.80;99.90;;;;;;5012805;28;20041;-73
2022/06/24 03:58:26;;;;;;;25.60;20.23;;;19.60;99.90;;;;;;4994969;28;20027;-72
2022/06/24 04:00:59;;;;;;;37.58;23.80;;;19.60;99.90;;;;;;5005045;28;20489;-72
2022/06/24 04:03:24;;;;;;;30.35;22.10;;;20.00;99.90;;;;;;4973973;28;20066;-72
2022/06/24 04:05:49;;;;;;;27.73;21.55;;;19.60;99.90;;;;;;5006625;28;20041;-74
2022/06/24 04:08:15;;;;;;;25.27;18.92;;;19.60;99.90;;;;;;5006123;28;20472;-74
2022/06/24 04:10:40;;;;;;;27.52;18.52;;;19.70;99.90;;;;;;5025841;28;20026;-74
2022/06/24 04:13:06;;;;;;;25.73;17.60;;;20.00;99.90;;;;;;5025876;28;20030;-74
2022/06/24 04:15:31;;;;;;;24.90;18.95;;;19.70;99.90;;;;;;4994797;28;20022;-74
2022/06/24 04:17:57;;;;;;;20.75;16.85;;;19.70;99.90;;;;;;5001968;28;20044;-74
2022/06/24 04:20:23;;;;;;;22.52;17.42;;;19.90;99.90;;;;;;5003409;28;20045;-74
2022/06/24 04:22:48;;;;;;;24.80;20.20;;;19.70;99.90;;;;;;4994285;28;20033;-74
2022/06/24 04:25:14;;;;;;;23.20;17.05;;;19.70;99.90;;;;;;5012212;28;20033;-74
2022/06/24 04:27:40;;;;;;;27.55;17.80;;;19.80;99.90;;;;;;5007468;28;20503;-74
2022/06/24 04:30:07;;;;;;;23.50;18.48;;;20.00;99.90;;;;;;5009845;28;20035;-74
2022/06/24 04:32:32;;;;;;;21.30;17.27;;;19.90;99.90;;;;;;4982872;28;20552;-75
2022/06/24 04:34:58;;;;;;;29.15;20.55;;;19.90;99.90;;;;;;5008346;28;20034;-76
2022/06/24 04:37:23;;;;;;;38.20;26.52;;;19.90;99.90;;;;;;5011031;28;20048;-77
2022/06/24 04:39:49;;;;;;;23.02;20.02;;;19.90;99.90;;;;;;5001142;28;20072;-76
2022/06/24 04:42:15;;;;;;;27.73;20.20;;;19.90;99.90;;;;;;5011256;28;20040;-77
2022/06/24 04:44:40;;;;;;;40.92;24.55;;;20.50;99.90;;;;;;5012131;28;20179;-75
2022/06/24 04:47:06;;;;;;;31.70;24.42;;;19.90;99.90;;;;;;5011074;28;20075;-75
2022/06/24 04:49:34;;;;;;;26.02;19.27;;;20.00;99.90;;;;;;5013344;28;20096;-75
2022/06/24 04:52:00;;;;;;;38.17;27.60;;;20.10;99.90;;;;;;5010809;28;20168;-75
2022/06/24 04:54:25;;;;;;;28.85;22.77;;;20.50;99.90;;;;;;5001549;28;20022;-75
2022/06/24 04:56:51;;;;;;;33.38;23.63;;;20.60;99.90;;;;;;5000289;28;20026;-75
2022/06/24 04:59:16;;;;;;;31.50;24.20;;;20.50;99.90;;;;;;5006094;28;20386;-74
2022/06/24 05:01:42;;;;;;;37.80;26.00;;;19.90;99.90;;;;;;4986962;28;20031;-75
2022/06/24 05:04:07;;;;;;;35.38;24.48;;;19.90;99.90;;;;;;4993540;28;20042;-72
2022/06/24 05:06:33;;;;;;;29.17;22.83;;;19.90;99.90;;;;;;4999155;28;20025;-76
2022/06/24 05:08:59;;;;;;;32.25;23.48;;;19.90;99.90;;;;;;4981965;28;20104;-75
2022/06/24 05:11:24;;;;;;;30.33;22.85;;;20.00;99.90;;;;;;4979608;28;20026;-74
2022/06/24 05:13:50;;;;;;;38.80;24.58;;;19.80;99.90;;;;;;5008188;28;20036;-75
2022/06/24 05:16:16;;;;;;;32.88;25.15;;;19.90;99.90;;;;;;5013364;28;20092;-78
2022/06/24 05:18:41;;;;;;;35.60;23.75;;;20.10;99.90;;;;;;5013224;28;20022;-73
2022/06/24 05:21:07;;;;;;;29.90;21.02;;;19.80;99.90;;;;;;5013023;28;20028;-73
2022/06/24 05:23:32;;;;;;;28.77;19.33;;;19.70;99.90;;;;;;5012989;28;20105;-74
2022/06/24 05:25:58;;;;;;;21.05;11.18;;;20.10;99.90;;;;;;5007673;28;20029;-74
2022/06/24 05:28:23;;;;;;;17.73;8.98;;;20.10;99.90;;;;;;5024848;28;20443;-74
2022/06/24 05:30:58;;;;;;;14.43;7.28;;;19.60;99.90;;;;;;5000833;28;20022;-74
2022/06/24 05:33:24;;;;;;;34.83;10.85;;;19.60;99.90;;;;;;5011910;28;20393;-74
2022/06/24 05:35:54;;;;;;;32.78;9.18;;;19.50;99.90;;;;;;5011865;28;20038;-74
2022/06/24 05:38:21;;;;;;;20.35;7.57;;;19.50;99.90;;;;;;5003379;28;20033;-73
2022/06/24 05:40:48;;;;;;;15.32;7.07;;;19.50;99.90;;;;;;4994131;28;20030;-72
2022/06/24 05:43:23;;;;;;;11.40;5.72;;;19.50;99.90;;;;;;5000239;28;20445;-73
2022/06/24 05:45:49;;;;;;;;;;;19.40;99.90;;;;;;4994348;28;20030;-73
2022/06/24 05:48:15;;;;;;;47.72;14.65;;;19.40;99.90;;;;;;4993221;28;19916;-73
2022/06/24 05:50:40;;;;;;;38.10;12.75;;;19.40;99.90;;;;;;4993659;28;20030;-76
2022/06/24 05:55:50;;;;;;;20.33;7.82;;;19.50;99.90;;;;;;5011816;28;20038;-76
2022/06/24 05:58:16;;;;;;;22.67;7.63;;;20.60;99.90;;;;;;4995878;28;20031;-75
2022/06/24 06:00:42;;;;;;;17.02;7.00;;;20.50;99.90;;;;;;5000931;28;20053;-72
2022/06/24 06:03:23;;;;;;;9.10;6.18;;;20.60;99.90;;;;;;5011461;28;20073;-75
2022/06/24 06:05:48;;;;;;;8.85;6.25;;;20.60;99.90;;;;;;5027339;28;20502;-70
2022/06/24 06:08:14;;;;;;;12.07;7.18;;;20.40;99.90;;;;;;5028473;28;20026;-67
2022/06/24 06:10:40;;;;;;;12.40;9.00;;;20.10;99.90;;;;;;4996507;28;20027;-71
2022/06/24 06:13:06;;;;;;;22.27;9.38;;;20.20;99.90;;;;;;4997303;28;20022;-71
2022/06/24 06:15:31;;;;;;;16.20;10.20;;;20.60;99.90;;;;;;5010962;28;20077;-72
2022/06/24 06:18:00;;;;;;;18.48;10.82;;;20.40;99.90;;;;;;4996656;28;20026;-70
2022/06/24 06:20:25;;;;;;;24.88;12.98;;;20.30;99.90;;;;;;4996680;28;20106;-70
2022/06/24 06:22:51;;;;;;;22.00;13.60;;;20.20;99.90;;;;;;4998949;28;20038;-70
2022/06/24 06:25:17;;;;;;;23.75;13.02;;;20.30;99.90;;;;;;5015120;28;20060;-70
2022/06/24 06:27:42;;;;;;;22.55;13.85;;;20.30;99.90;;;;;;4996703;28;20526;-71
2022/06/24 06:30:09;;;;;;;23.27;15.48;;;20.30;99.90;;;;;;5000918;28;20033;-71
2022/06/24 06:32:34;;;;;;;40.20;18.95;;;20.10;99.90;;;;;;4995424;28;20031;-71
2022/06/24 06:35:00;;;;;;;27.40;16.55;;;20.10;99.90;;;;;;5006406;28;20060;-70
2022/06/24 06:37:25;;;;;;;26.75;18.40;;;20.40;99.90;;;;;;5001053;28;20501;-71
2022/06/24 06:39:51;;;;;;;25.08;16.23;;;19.90;99.90;;;;;;4996464;28;20034;-71
2022/06/24 06:42:16;;;;;;;26.95;15.30;;;20.50;99.90;;;;;;4996047;28;20383;-70
2022/06/24 06:44:42;;;;;;;24.65;14.35;;;20.10;99.90;;;;;;5001249;28;20475;-70
2022/06/24 06:47:07;;;;;;;24.92;16.67;;;20.10;99.90;;;;;;4999004;28;20101;-70
2022/06/24 06:49:33;;;;;;;22.67;14.63;;;20.40;99.90;;;;;;4996088;28;20026;-71
2022/06/24 06:52:02;;;;;;;29.45;15.20;;;20.20;99.90;;;;;;4976574;28;20027;-70
2022/06/24 06:54:27;;;;;;;26.83;16.25;;;20.00;99.90;;;;;;4975522;28;20360;-70
2022/06/24 06:56:53;;;;;;;15.10;11.18;;;19.90;99.90;;;;;;4976540;28;20146;-70
2022/06/24 06:59:19;;;;;;;14.98;8.23;;;19.50;99.90;;;;;;4976516;28;20027;-70
2022/06/24 07:01:44;;;;;;;11.13;5.95;;;19.30;99.90;;;;;;4976493;28;20068;-69
2022/06/24 07:04:10;;;;;;;9.80;5.22;;;18.90;99.90;;;;;;4976167;28;20578;-69
2022/06/24 07:06:35;;;;;;;12.40;5.60;;;18.80;99.90;;;;;;4975474;28;20038;-69
2022/06/24 07:09:01;;;;;;;8.32;4.20;;;18.60;99.90;;;;;;4976288;28;20023;-70
2022/06/24 07:11:27;;;;;;;6.38;3.83;;;18.50;99.90;;;;;;4989063;28;20085;-69
2022/06/24 07:13:54;;;;;;;12.45;3.55;;;18.30;99.90;;;;;;4995229;28;20105;-69
2022/06/24 07:16:20;;;;;;;12.45;3.92;;;18.20;99.90;;;;;;4995638;28;20501;-69
2022/06/24 07:18:45;;;;;;;11.25;3.65;;;18.20;99.90;;;;;;4995658;28;20039;-68
2022/06/24 07:21:12;;;;;;;9.52;3.55;;;18.10;99.90;;;;;;4995493;28;20422;-68
2022/06/24 07:23:39;;;;;;;8.68;3.70;;;18.70;99.90;;;;;;4995581;28;20037;-72
2022/06/24 07:26:05;;;;;;;5.47;2.40;;;18.60;99.90;;;;;;4995517;28;20026;-72
2022/06/24 07:28:30;;;;;;;4.70;2.95;;;18.50;99.90;;;;;;4995487;28;20029;-72
2022/06/24 07:30:56;;;;;;;12.93;4.55;;;18.40;99.90;;;;;;4999260;28;20033;-74
2022/06/24 07:33:23;;;;;;;13.70;4.40;;;18.40;99.90;;;;;;5026768;28;20080;-72
2022/06/24 07:35:49;;;;;;;13.88;5.03;;;18.20;99.90;;;;;;4996404;28;20034;-65
2022/06/24 07:38:14;;;;;;;5.68;3.55;;;18.10;99.90;;;;;;4995215;28;20036;-66
2022/06/24 07:40:40;;;;;;;12.23;5.72;;;18.00;99.90;;;;;;4995499;28;20117;-66
2022/06/24 07:43:06;;;;;;;17.92;7.38;;;18.00;99.90;;;;;;4995134;28;20022;-66
2022/06/24 07:45:31;;;;;;;10.88;6.05;;;18.10;99.90;;;;;;4995058;28;20034;-66
2022/06/24 07:47:57;;;;;;;14.10;7.13;;;18.20;99.90;;;;;;4995050;28;20023;-66
2022/06/24 07:50:22;;;;;;;7.05;4.65;;;18.10;99.90;;;;;;4995120;28;20023;-66
2022/06/24 07:52:48;;;;;;;11.63;5.57;;;18.10;99.90;;;;;;4995069;28;20109;-66
2022/06/24 07:58:11;;;;;;;16.40;8.50;;;18.10;99.90;;;;;;4982841;28;20085;-66
2022/06/24 08:00:36;;;;;;;20.58;8.20;;;18.20;99.90;;;;;;4994848;28;20434;-66
2022/06/24 08:03:02;;;;;;;9.82;5.57;;;18.10;99.90;;;;;;4994510;28;20435;-66
2022/06/24 08:05:27;;;;;;;9.27;6.05;;;18.00;99.90;;;;;;4994760;28;20081;-66
2022/06/24 08:07:53;;;;;;;30.10;10.40;;;18.10;99.90;;;;;;4994784;28;20019;-66
2022/06/24 08:10:18;;;;;;;31.48;10.48;;;18.10;99.90;;;;;;4994703;28;20019;-66
2022/06/24 08:12:44;;;;;;;15.93;8.98;;;18.30;99.90;;;;;;4994709;28;20026;-66
2022/06/24 08:15:10;;;;;;;14.52;7.88;;;18.40;99.90;;;;;;4994555;28;20030;-66
2022/06/24 08:17:35;;;;;;;30.00;10.80;;;18.70;99.90;;;;;;4994537;28;20027;-66
2022/06/24 08:20:01;;;;;;;15.05;7.35;;;18.70;99.90;;;;;;4994636;28;20653;-66
2022/06/24 08:22:26;;;;;;;17.70;7.50;;;18.60;99.90;;;;;;4994452;28;20030;-66
2022/06/24 08:24:52;;;;;;;25.25;9.32;;;18.50;99.90;;;;;;4994298;28;20149;-66
2022/06/24 08:27:17;;;;;;;15.57;8.10;;;18.40;99.90;;;;;;4994282;28;20026;-66
2022/06/24 08:29:43;;;;;;;12.65;9.07;;;18.40;99.90;;;;;;4994285;28;20026;-66
2022/06/24 08:32:08;;;;;;;19.52;10.55;;;18.50;99.90;;;;;;4994097;28;20037;-66
2022/06/24 08:34:34;;;;;;;13.73;10.07;;;18.50;99.90;;;;;;4994339;28;20025;-66
2022/06/24 08:36:59;;;;;;;42.15;15.32;;;18.70;99.90;;;;;;4994064;28;20031;-66
2022/06/24 08:39:25;;;;;;;32.92;14.15;;;18.70;99.90;;;;;;4994152;28;20041;-66
2022/06/24 08:41:53;;;;;;;26.88;12.80;;;19.00;99.90;;;;;;4994218;28;20041;-66
2022/06/24 08:44:18;;;;;;;21.90;10.55;;;18.90;99.90;;;;;;5024918;28;20030;-66
2022/06/24 08:46:44;;;;;;;20.08;11.52;;;18.90;99.90;;;;;;4994028;28;20026;-66
2022/06/24 08:49:09;;;;;;;31.42;14.50;;;19.10;99.90;;;;;;4993908;28;20022;-66
2022/06/24 08:51:35;;;;;;;21.70;12.63;;;19.00;99.90;;;;;;4993991;28;20019;-66
2022/06/24 08:54:01;;;;;;;23.50;10.93;;;19.00;99.90;;;;;;5025454;28;20390;-66
2022/06/24 08:56:27;;;;;;;19.88;10.77;;;19.10;99.90;;;;;;5025272;28;20030;-66
2022/06/24 08:58:53;;;;;;;20.15;10.75;;;19.00;99.90;;;;;;4993914;28;20034;-67
2022/06/24 09:01:18;;;;;;;17.55;10.05;;;19.10;99.90;;;;;;5025353;28;20022;-66
2022/06/24 09:03:44;;;;;;;23.17;11.10;;;19.10;99.90;;;;;;4993698;28;20057;-67
2022/06/24 09:06:11;;;;;;;9.82;8.27;;;19.10;99.90;;;;;;4993497;28;20113;-67
2022/06/24 09:08:37;;;;;;;22.92;9.80;;;19.30;99.90;;;;;;4993805;28;20026;-67
2022/06/24 09:11:06;;;;;;;19.33;10.15;;;19.30;99.90;;;;;;4993635;28;20022;-67
2022/06/24 09:13:45;;;;;;;18.83;10.43;;;19.30;99.90;;;;;;4993613;28;20105;-66
2022/06/24 09:16:11;;;;;;;25.15;10.50;;;19.30;99.90;;;;;;4993556;28;20113;-66
2022/06/24 09:18:37;;;;;;;13.73;8.25;;;19.30;99.90;;;;;;4993699;28;20098;-66
2022/06/24 09:21:02;;;;;;;13.82;9.05;;;19.30;99.90;;;;;;4993543;28;20084;-67
2022/06/24 09:23:28;;;;;;;16.10;9.10;;;19.40;99.90;;;;;;4993489;28;20022;-70
2022/06/24 09:25:57;;;;;;;16.02;9.02;;;19.50;99.90;;;;;;5024895;28;20026;-70
2022/06/24 09:28:31;;;;;;;22.27;8.80;;;19.60;99.90;;;;;;4992782;28;20034;-69
2022/06/24 09:31:01;;;;;;;;;;;19.70;99.90;;;;;;4993859;28;20025;-69
2022/06/24 09:33:27;;;;;;;8.90;7.35;;;19.60;99.90;;;;;;4993164;28;20436;-69
2022/06/24 09:36:00;;;;;;;21.55;8.93;;;19.90;99.90;;;;;;4993444;28;20034;-69
2022/06/24 09:38:25;;;;;;;16.10;6.78;;;20.20;99.90;;;;;;4993520;28;20058;-69
2022/06/24 09:40:58;;;;;;;25.80;9.02;;;20.30;99.90;;;;;;4993079;28;20105;-69
2022/06/24 09:43:27;;;;;;;24.30;9.60;;;20.70;99.90;;;;;;4992373;28;20379;-69
2022/06/24 09:45:53;;;;;;;14.45;7.00;;;20.40;99.90;;;;;;4992124;28;20031;-70
2022/06/24 09:48:33;;;;;;;13.35;7.97;;;20.50;99.90;;;;;;4992998;28;20025;-70
2022/06/24 09:51:06;;;;;;;21.70;14.35;;;20.60;99.90;;;;;;4992079;28;20033;-70
2022/06/24 09:53:35;;;;;;;15.05;7.72;;;20.90;99.90;;;;;;4992016;28;20046;-71
2022/06/24 09:56:01;;;;;;;16.33;7.25;;;21.20;99.90;;;;;;4993087;28;20118;-71
2022/06/24 09:58:26;;;;;;;11.70;6.70;;;22.10;99.90;;;;;;4992927;28;20443;-71
2022/06/24 10:00:52;;;;;;;16.38;7.72;;;22.20;99.90;;;;;;4993213;28;20186;-72
2022/06/24 10:03:17;;;;;;;14.48;6.82;;;23.00;99.90;;;;;;4992915;28;20125;-71
2022/06/24 10:05:48;;;;;;;22.13;6.90;;;24.10;99.90;;;;;;4992906;28;20053;-72
2022/06/24 10:08:15;;;;;;;14.95;6.43;;;23.80;99.90;;;;;;4993085;28;20501;-72
2022/06/24 10:10:52;;;;;;;9.57;5.97;;;23.70;99.90;;;;;;4991896;28;20482;-71
2022/06/24 10:13:25;;;;;;;14.90;7.05;;;24.00;99.90;;;;;;4992993;28;20105;-72
2022/06/24 10:15:51;;;;;;;13.52;6.40;;;25.20;99.90;;;;;;4992840;28;20042;-70
2022/06/24 10:18:19;;;;;;;9.40;5.72;;;25.10;99.00;;;;;;4993039;28;20034;-71
2022/06/24 10:20:45;;;;;;;10.70;5.18;;;24.60;99.90;;;;;;4991768;28;20039;-70
2022/06/24 10:23:36;;;;;;;9.35;6.72;;;26.30;99.90;;;;;;4992892;28;20062;-70
2022/06/24 10:26:27;;;;;;;8.75;5.45;;;25.80;97.00;;;;;;4992636;28;20038;-70
2022/06/24 10:30:05;;;;;;;7.57;4.38;;;25.70;98.40;;;;;;4992719;28;20022;-70
2022/06/24 10:32:31;;;;;;;8.43;4.50;;;27.10;95.30;;;;;;4982921;28;20049;-69
2022/06/24 10:35:23;;;;;;;9.38;4.95;;;26.70;95.50;;;;;;5010049;28;20046;-70
2022/06/24 10:37:51;;;;;;;7.55;5.10;;;25.80;97.00;;;;;;4988608;28;20498;-70
2022/06/24 10:40:23;;;;;;;13.15;5.13;;;26.00;97.30;;;;;;4993075;28;20125;-70
2022/06/24 10:43:03;;;;;;;7.82;4.65;;;27.60;94.30;;;;;;5006663;28;20068;-70
2022/06/24 10:45:34;;;;;;;8.77;5.10;;;27.90;91.30;;;;;;5004117;28;20912;-71
2022/06/24 10:48:00;;;;;;;12.48;5.10;;;28.00;88.30;;;;;;4994032;28;20478;-69
2022/06/24 10:50:26;;;;;;;12.30;6.13;;;25.80;96.10;;;;;;4995573;28;20022;-70
2022/06/24 10:52:53;;;;;;;8.77;4.90;;;25.50;97.20;;;;;;4996006;28;20375;-70
2022/06/24 10:55:24;;;;;;;5.07;4.57;;;25.20;99.10;;;;;;4995498;28;20089;-70
2022/06/24 10:57:51;;;;;;;9.27;4.93;;;25.10;98.10;;;;;;4995964;28;20022;-71
2022/06/24 11:00:39;;;;;;;11.50;5.13;;;25.10;97.80;;;;;;4995405;28;20109;-75
2022/06/24 11:03:04;;;;;;;8.50;5.85;;;25.00;97.90;;;;;;4995301;28;20046;-72
2022/06/24 11:05:32;;;;;;;17.25;6.15;;;25.60;98.40;;;;;;4995470;28;20030;-72
2022/06/24 11:07:58;;;;;;;12.52;6.00;;;25.00;98.00;;;;;;4987100;28;20045;-72
2022/06/24 11:10:26;;;;;;;6.47;5.60;;;25.00;98.70;;;;;;4976076;28;20348;-72
2022/06/24 11:12:58;;;;;;;7.03;5.78;;;23.20;99.90;;;;;;4976141;28;20026;-72
2022/06/24 11:15:39;;;;;;;10.65;6.40;;;23.40;99.90;;;;;;4975828;28;20508;-71
2022/06/24 11:18:14;;;;;;;7.25;5.78;;;23.40;99.90;;;;;;4976021;28;20037;-72
2022/06/24 11:21:00;;;;;;;6.88;5.35;;;23.20;99.90;;;;;;4986017;28;20498;-72
2022/06/24 11:23:27;;;;;;;11.38;7.15;;;24.40;99.80;;;;;;4993973;28;20598;-72
2022/06/24 11:25:58;;;;;;;12.80;5.68;;;25.50;97.20;;;;;;4995148;28;20034;-72
2022/06/24 11:28:32;;;;;;;6.88;5.00;;;25.40;95.60;;;;;;4995073;28;20041;-72
2022/06/24 11:31:25;;;;;;;7.97;4.70;;;26.70;96.40;;;;;;4994825;28;20034;-73
2022/06/24 11:34:03;;;;;;;6.47;4.57;;;26.70;96.10;;;;;;4995057;28;20022;-72
2022/06/24 11:36:31;;;;;;;9.35;4.47;;;27.10;94.50;;;;;;4995022;28;20026;-73
2022/06/24 11:38:58;;;;;;;6.25;4.43;;;26.60;95.40;;;;;;4995015;28;20030;-73
2022/06/24 11:41:37;;;;;;;10.38;6.00;;;26.50;95.80;;;;;;4993251;28;20146;-75
2022/06/24 11:44:02;;;;;;;8.93;6.45;;;24.70;97.10;;;;;;4993891;28;20034;-67
2022/06/24 11:46:28;;;;;;;13.93;8.02;;;24.10;99.90;;;;;;4994626;28;20109;-68
2022/06/24 11:49:11;;;;;;;10.98;6.38;;;24.10;99.90;;;;;;4994833;28;20137;-71
2022/06/24 11:51:36;;;;;;;7.80;5.40;;;25.40;98.30;;;;;;4994126;28;20398;-70
2022/06/24 11:54:04;;;;;;;13.57;6.38;;;27.00;95.90;;;;;;4994864;28;20019;-71
2022/06/24 11:56:31;;;;;;;6.70;5.28;;;27.60;95.00;;;;;;4994875;28;20038;-71
2022/06/24 11:58:58;;;;;;;6.55;5.43;;;25.70;93.70;;;;;;4994734;28;20096;-70
2022/06/24 12:01:23;;;;;;;11.52;5.60;;;25.50;97.70;;;;;;4993293;28;20034;-70
2022/06/24 12:03:50;;;;;;;8.77;5.03;;;25.40;99.20;;;;;;4994571;28;20625;-70
2022/06/24 12:06:18;;;;;;;11.18;5.72;;;25.60;97.10;;;;;;4992993;28;20106;-70
2022/06/24 12:08:45;;;;;;;12.68;5.65;;;25.60;96.80;;;;;;4993462;28;20026;-70
2022/06/24 12:11:18;;;;;;;5.20;4.68;;;25.30;96.00;;;;;;4993247;28;20034;-71
2022/06/24 12:13:58;;;;;;;9.68;6.40;;;26.30;93.60;;;;;;4994502;28;20022;-70
2022/06/24 12:16:27;;;;;;;7.80;5.70;;;26.50;94.40;;;;;;4994375;28;20390;-71
2022/06/24 12:18:53;;;;;;;9.10;6.60;;;27.20;92.60;;;;;;4994147;28;20085;-71
2022/06/24 12:21:26;;;;;;;8.30;6.40;;;27.30;90.10;;;;;;4996920;28;20065;-70
2022/06/24 12:23:52;;;;;;;9.02;5.97;;;27.40;93.80;;;;;;4994271;28;20037;-71
2022/06/24 12:26:18;;;;;;;9.13;6.18;;;26.60;91.90;;;;;;4994049;28;20040;-69
2022/06/24 12:28:45;;;;;;;10.20;6.38;;;26.20;93.00;;;;;;4994242;28;20026;-69
2022/06/24 12:31:12;;;;;;;8.93;6.28;;;26.50;93.70;;;;;;4992812;28;20034;-70
2022/06/24 12:33:43;;;;;;;8.02;6.18;;;26.60;95.40;;;;;;4994159;28;20029;-69
2022/06/24 12:36:14;;;;;;;6.95;5.45;;;27.00;92.10;;;;;;4993935;28;20117;-69
2022/06/24 12:39:02;;;;;;;5.30;4.80;;;27.70;91.00;;;;;;4993857;28;20026;-70
2022/06/24 12:41:27;;;;;;;5.63;4.47;;;29.60;82.10;;;;;;4993853;28;20554;-69
2022/06/24 12:44:01;;;;;;;8.23;6.15;;;28.80;78.20;;;;;;4993923;28;20034;-70
2022/06/24 12:46:35;;;;;;;8.90;6.50;;;28.50;84.60;;;;;;4993751;28;20034;-69
2022/06/24 12:51:55;;;;;;;6.25;4.68;;;28.40;90.70;;;;;;5019777;28;20073;-69